Lyman, Wyoming
Current Conditions -  °F | °C
As of 6:35 PM on Monday 20 Oct 2014 (Local Time) from KFBR Reporting Station
Broken Clouds Broken Clouds  
Wind Chill: 59°   Ceiling: 8500
Heat Index: 59°   Visibility: NA
Dew Point: 33°   Wind: 9mph
Humidity: 38%   Direction: 180°S
Pressure: 30.12"   Gusts: NA
Location:  41.33°N, 110.29°W
Report Text: KFBR 210035Z AUTO 18008KT BKN085 BKN110 15/01 A3012 RMK AO2 T01490005 PWINO
Loading
Personal Weather Stations






























Interactive Weather Map New forecast layout! Learn more

10-Day Weather Forecast

Advertisements
Track Severe Weather on mobile